sensor_id;sensor_type;location;lat;lon;timestamp;P1;durP1;ratioP1;P2;durP2;ratioP2
77495;SDS011;66600;48.378;9.948;2023-09-30T00:00:23;25.42;;;10.07;;
77495;SDS011;66600;48.378;9.948;2023-09-30T00:00:54;22.33;;;9.30;;
77495;SDS011;66600;48.378;9.948;2023-09-30T00:01:24;25.90;;;9.38;;
77495;SDS011;66600;48.378;9.948;2023-09-30T00:01:55;24.40;;;9.48;;
77495;SDS011;66600;48.378;9.948;2023-09-30T00:02:25;22.80;;;8.93;;
77495;SDS011;66600;48.378;9.948;2023-09-30T00:02:55;23.75;;;9.35;;
77495;SDS011;66600;48.378;9.948;2023-09-30T00:03:26;20.20;;;9.00;;
77495;SDS011;66600;48.378;9.948;2023-09-30T00:03:56;22.98;;;9.38;;
77495;SDS011;66600;48.378;9.948;2023-09-30T00:04:26;25.45;;;9.73;;
77495;SDS011;66600;48.378;9.948;2023-09-30T00:04:57;23.58;;;8.93;;
77495;SDS011;66600;48.378;9.948;2023-09-30T00:05:28;22.17;;;9.15;;
77495;SDS011;66600;48.378;9.948;2023-09-30T00:05:58;22.42;;;9.48;;
77495;SDS011;66600;48.378;9.948;2023-09-30T00:06:29;22.55;;;9.32;;
77495;SDS011;66600;48.378;9.948;2023-09-30T00:06:59;21.15;;;9.43;;
77495;SDS011;66600;48.378;9.948;2023-09-30T00:07:30;23.23;;;9.38;;
77495;SDS011;66600;48.378;9.948;2023-09-30T00:08:00;25.92;;;9.27;;
77495;SDS011;66600;48.378;9.948;2023-09-30T00:08:30;23.15;;;9.05;;
77495;SDS011;66600;48.378;9.948;2023-09-30T00:09:01;21.83;;;9.38;;
77495;SDS011;66600;48.378;9.948;2023-09-30T00:09:32;21.48;;;8.95;;
77495;SDS011;66600;48.378;9.948;2023-09-30T00:10:02;23.50;;;9.68;;
77495;SDS011;66600;48.378;9.948;2023-09-30T00:10:33;21.42;;;9.00;;
77495;SDS011;66600;48.378;9.948;2023-09-30T00:11:03;20.00;;;9.18;;
77495;SDS011;66600;48.378;9.948;2023-09-30T00:11:35;22.25;;;9.05;;
77495;SDS011;66600;48.378;9.948;2023-09-30T00:12:06;22.88;;;9.52;;
77495;SDS011;66600;48.378;9.948;2023-09-30T00:12:37;24.23;;;9.98;;
77495;SDS011;66600;48.378;9.948;2023-09-30T00:13:07;22.50;;;9.25;;
77495;SDS011;66600;48.378;9.948;2023-09-30T00:13:38;21.60;;;9.30;;
77495;SDS011;66600;48.378;9.948;2023-09-30T00:14:08;24.58;;;9.25;;
77495;SDS011;66600;48.378;9.948;2023-09-30T00:14:39;23.17;;;8.98;;
77495;SDS011;66600;48.378;9.948;2023-09-30T00:15:09;24.48;;;9.05;;
77495;SDS011;66600;48.378;9.948;2023-09-30T00:15:40;19.08;;;8.68;;
77495;SDS011;66600;48.378;9.948;2023-09-30T00:16:11;20.23;;;8.60;;
77495;SDS011;66600;48.378;9.948;2023-09-30T00:16:41;20.90;;;8.00;;
77495;SDS011;66600;48.378;9.948;2023-09-30T00:17:11;22.52;;;9.38;;
77495;SDS011;66600;48.378;9.948;2023-09-30T00:17:42;24.25;;;8.52;;
77495;SDS011;66600;48.378;9.948;2023-09-30T00:18:12;19.50;;;8.48;;
77495;SDS011;66600;48.378;9.948;2023-09-30T00:18:43;21.02;;;8.23;;
77495;SDS011;66600;48.378;9.948;2023-09-30T00:19:14;19.17;;;8.23;;
77495;SDS011;66600;48.378;9.948;2023-09-30T00:19:45;19.52;;;8.45;;
77495;SDS011;66600;48.378;9.948;2023-09-30T00:20:15;21.08;;;8.52;;
77495;SDS011;66600;48.378;9.948;2023-09-30T00:20:45;19.25;;;8.27;;
77495;SDS011;66600;48.378;9.948;2023-09-30T00:21:16;19.90;;;7.75;;
77495;SDS011;66600;48.378;9.948;2023-09-30T00:21:46;20.60;;;8.13;;
77495;SDS011;66600;48.378;9.948;2023-09-30T00:22:17;18.05;;;7.35;;
77495;SDS011;66600;48.378;9.948;2023-09-30T00:22:47;22.50;;;7.88;;
77495;SDS011;66600;48.378;9.948;2023-09-30T00:23:18;21.52;;;8.88;;
77495;SDS011;66600;48.378;9.948;2023-09-30T00:23:51;20.58;;;7.85;;
77495;SDS011;66600;48.378;9.948;2023-09-30T00:24:21;18.60;;;7.68;;
77495;SDS011;66600;48.378;9.948;2023-09-30T00:24:52;19.17;;;7.90;;
77495;SDS011;66600;48.378;9.948;2023-09-30T00:25:22;20.50;;;8.63;;
77495;SDS011;66600;48.378;9.948;2023-09-30T00:25:53;21.25;;;8.93;;
77495;SDS011;66600;48.378;9.948;2023-09-30T00:26:23;19.88;;;8.75;;
77495;SDS011;66600;48.378;9.948;2023-09-30T00:26:53;20.10;;;8.18;;
77495;SDS011;66600;48.378;9.948;2023-09-30T00:27:24;24.00;;;8.23;;
77495;SDS011;66600;48.378;9.948;2023-09-30T00:27:54;19.95;;;7.22;;
77495;SDS011;66600;48.378;9.948;2023-09-30T00:28:24;19.77;;;8.52;;
77495;SDS011;66600;48.378;9.948;2023-09-30T00:28:55;19.52;;;7.72;;
77495;SDS011;66600;48.378;9.948;2023-09-30T00:29:25;18.92;;;7.30;;
77495;SDS011;66600;48.378;9.948;2023-09-30T00:29:56;19.25;;;7.25;;
77495;SDS011;66600;48.378;9.948;2023-09-30T00:30:27;20.65;;;8.07;;
77495;SDS011;66600;48.378;9.948;2023-09-30T00:30:57;17.48;;;7.30;;
77495;SDS011;66600;48.378;9.948;2023-09-30T00:31:28;20.90;;;8.48;;
77495;SDS011;66600;48.378;9.948;2023-09-30T00:31:58;20.13;;;7.82;;
77495;SDS011;66600;48.378;9.948;2023-09-30T00:32:28;18.00;;;7.65;;
77495;SDS011;66600;48.378;9.948;2023-09-30T00:32:59;21.98;;;8.15;;
77495;SDS011;66600;48.378;9.948;2023-09-30T00:33:29;21.40;;;7.30;;
77495;SDS011;66600;48.378;9.948;2023-09-30T00:34:00;20.25;;;7.95;;
77495;SDS011;66600;48.378;9.948;2023-09-30T00:34:34;18.67;;;8.30;;
77495;SDS011;66600;48.378;9.948;2023-09-30T00:35:05;18.92;;;7.80;;
77495;SDS011;66600;48.378;9.948;2023-09-30T00:35:41;18.02;;;7.47;;
77495;SDS011;66600;48.378;9.948;2023-09-30T00:36:11;18.85;;;7.80;;
77495;SDS011;66600;48.378;9.948;2023-09-30T00:36:42;20.38;;;8.27;;
77495;SDS011;66600;48.378;9.948;2023-09-30T00:37:12;20.10;;;7.80;;
77495;SDS011;66600;48.378;9.948;2023-09-30T00:37:43;17.35;;;7.35;;
77495;SDS011;66600;48.378;9.948;2023-09-30T00:38:14;18.70;;;7.15;;
77495;SDS011;66600;48.378;9.948;2023-09-30T00:38:44;19.83;;;7.60;;
77495;SDS011;66600;48.378;9.948;2023-09-30T00:39:15;19.50;;;7.75;;
77495;SDS011;66600;48.378;9.948;2023-09-30T00:39:45;17.85;;;8.00;;
77495;SDS011;66600;48.378;9.948;2023-09-30T00:40:15;21.63;;;8.07;;
77495;SDS011;66600;48.378;9.948;2023-09-30T00:40:47;21.17;;;7.82;;
77495;SDS011;66600;48.378;9.948;2023-09-30T00:41:18;17.30;;;7.30;;
77495;SDS011;66600;48.378;9.948;2023-09-30T00:41:48;18.55;;;7.75;;
77495;SDS011;66600;48.378;9.948;2023-09-30T00:42:19;19.85;;;8.32;;
77495;SDS011;66600;48.378;9.948;2023-09-30T00:42:50;18.48;;;7.78;;
77495;SDS011;66600;48.378;9.948;2023-09-30T00:43:21;18.55;;;7.40;;
77495;SDS011;66600;48.378;9.948;2023-09-30T00:43:51;16.80;;;7.05;;
77495;SDS011;66600;48.378;9.948;2023-09-30T00:44:21;18.13;;;7.85;;
77495;SDS011;66600;48.378;9.948;2023-09-30T00:44:52;17.80;;;7.45;;
77495;SDS011;66600;48.378;9.948;2023-09-30T00:45:22;16.63;;;7.85;;
77495;SDS011;66600;48.378;9.948;2023-09-30T00:45:55;18.05;;;7.90;;
77495;SDS011;66600;48.378;9.948;2023-09-30T00:46:39;18.77;;;7.88;;
77495;SDS011;66600;48.378;9.948;2023-09-30T00:47:11;18.80;;;7.05;;
77495;SDS011;66600;48.378;9.948;2023-09-30T00:47:42;18.85;;;7.03;;
77495;SDS011;66600;48.378;9.948;2023-09-30T00:48:13;20.05;;;7.40;;
77495;SDS011;66600;48.378;9.948;2023-09-30T00:48:44;20.17;;;8.05;;
77495;SDS011;66600;48.378;9.948;2023-09-30T00:49:15;17.92;;;7.40;;
77495;SDS011;66600;48.378;9.948;2023-09-30T00:49:47;18.05;;;6.88;;
77495;SDS011;66600;48.378;9.948;2023-09-30T00:50:19;19.60;;;7.60;;
77495;SDS011;66600;48.378;9.948;2023-09-30T00:50:50;19.33;;;7.50;;
77495;SDS011;66600;48.378;9.948;2023-09-30T00:51:21;18.60;;;7.68;;
77495;SDS011;66600;48.378;9.948;2023-09-30T00:51:52;20.38;;;7.70;;
77495;SDS011;66600;48.378;9.948;2023-09-30T00:52:24;18.63;;;7.53;;
77495;SDS011;66600;48.378;9.948;2023-09-30T00:52:55;16.05;;;6.97;;
77495;SDS011;66600;48.378;9.948;2023-09-30T00:53:26;18.85;;;7.30;;
77495;SDS011;66600;48.378;9.948;2023-09-30T00:53:58;19.23;;;7.43;;
77495;SDS011;66600;48.378;9.948;2023-09-30T00:54:29;18.63;;;7.18;;
77495;SDS011;66600;48.378;9.948;2023-09-30T00:55:00;17.88;;;7.22;;
77495;SDS011;66600;48.378;9.948;2023-09-30T00:55:32;19.48;;;7.85;;
77495;SDS011;66600;48.378;9.948;2023-09-30T00:56:03;17.75;;;7.43;;
77495;SDS011;66600;48.378;9.948;2023-09-30T00:56:35;16.20;;;6.90;;
77495;SDS011;66600;48.378;9.948;2023-09-30T00:57:13;18.58;;;8.45;;
77495;SDS011;66600;48.378;9.948;2023-09-30T00:57:43;18.38;;;7.78;;
77495;SDS011;66600;48.378;9.948;2023-09-30T00:58:14;18.20;;;7.90;;
77495;SDS011;66600;48.378;9.948;2023-09-30T00:58:45;17.35;;;6.78;;
77495;SDS011;66600;48.378;9.948;2023-09-30T00:59:17;18.80;;;7.70;;
77495;SDS011;66600;48.378;9.948;2023-09-30T00:59:49;17.80;;;6.97;;
77495;SDS011;66600;48.378;9.948;2023-09-30T01:00:20;17.77;;;7.53;;
77495;SDS011;66600;48.378;9.948;2023-09-30T01:00:51;18.70;;;7.55;;
77495;SDS011;66600;48.378;9.948;2023-09-30T01:01:23;17.45;;;7.30;;
77495;SDS011;66600;48.378;9.948;2023-09-30T01:01:54;17.85;;;7.30;;
77495;SDS011;66600;48.378;9.948;2023-09-30T01:02:27;17.10;;;7.22;;
77495;SDS011;66600;48.378;9.948;2023-09-30T01:02:58;16.80;;;7.20;;
77495;SDS011;66600;48.378;9.948;2023-09-30T01:03:33;19.58;;;7.25;;
77495;SDS011;66600;48.378;9.948;2023-09-30T01:04:04;20.48;;;7.85;;
77495;SDS011;66600;48.378;9.948;2023-09-30T01:04:36;18.10;;;7.05;;
77495;SDS011;66600;48.378;9.948;2023-09-30T01:05:08;18.45;;;7.45;;
77495;SDS011;66600;48.378;9.948;2023-09-30T01:05:39;17.10;;;7.47;;
77495;SDS011;66600;48.378;9.948;2023-09-30T01:06:09;18.63;;;7.80;;
77495;SDS011;66600;48.378;9.948;2023-09-30T01:06:40;18.23;;;7.38;;
77495;SDS011;66600;48.378;9.948;2023-09-30T01:07:10;19.25;;;6.88;;
77495;SDS011;66600;48.378;9.948;2023-09-30T01:07:41;17.27;;;7.18;;
77495;SDS011;66600;48.378;9.948;2023-09-30T01:08:12;21.35;;;8.00;;
77495;SDS011;66600;48.378;9.948;2023-09-30T01:08:42;19.30;;;7.10;;
77495;SDS011;66600;48.378;9.948;2023-09-30T01:09:13;17.00;;;7.38;;
77495;SDS011;66600;48.378;9.948;2023-09-30T01:09:44;16.80;;;6.82;;
77495;SDS011;66600;48.378;9.948;2023-09-30T01:10:14;16.83;;;6.80;;
77495;SDS011;66600;48.378;9.948;2023-09-30T01:10:45;18.52;;;7.47;;
77495;SDS011;66600;48.378;9.948;2023-09-30T01:11:16;16.65;;;6.57;;
77495;SDS011;66600;48.378;9.948;2023-09-30T01:11:47;15.82;;;6.45;;
77495;SDS011;66600;48.378;9.948;2023-09-30T01:12:18;18.92;;;7.47;;
77495;SDS011;66600;48.378;9.948;2023-09-30T01:12:48;17.98;;;7.65;;
77495;SDS011;66600;48.378;9.948;2023-09-30T01:13:18;19.48;;;7.75;;
77495;SDS011;66600;48.378;9.948;2023-09-30T01:13:49;17.60;;;6.97;;
77495;SDS011;66600;48.378;9.948;2023-09-30T01:14:26;21.50;;;7.80;;
77495;SDS011;66600;48.378;9.948;2023-09-30T01:14:58;17.65;;;7.25;;
77495;SDS011;66600;48.378;9.948;2023-09-30T01:15:29;17.27;;;6.70;;
77495;SDS011;66600;48.378;9.948;2023-09-30T01:16:07;16.98;;;7.25;;
77495;SDS011;66600;48.378;9.948;2023-09-30T01:16:41;16.65;;;6.63;;
77495;SDS011;66600;48.378;9.948;2023-09-30T01:17:11;18.85;;;7.18;;
77495;SDS011;66600;48.378;9.948;2023-09-30T01:17:43;17.60;;;6.68;;
77495;SDS011;66600;48.378;9.948;2023-09-30T01:18:14;20.38;;;7.63;;
77495;SDS011;66600;48.378;9.948;2023-09-30T01:18:44;20.40;;;7.57;;
77495;SDS011;66600;48.378;9.948;2023-09-30T01:19:14;18.50;;;7.35;;
77495;SDS011;66600;48.378;9.948;2023-09-30T01:19:45;17.75;;;7.57;;
77495;SDS011;66600;48.378;9.948;2023-09-30T01:20:16;17.92;;;7.22;;
77495;SDS011;66600;48.378;9.948;2023-09-30T01:20:49;14.63;;;6.30;;
77495;SDS011;66600;48.378;9.948;2023-09-30T01:21:22;15.68;;;7.03;;
77495;SDS011;66600;48.378;9.948;2023-09-30T01:21:54;17.58;;;7.45;;
77495;SDS011;66600;48.378;9.948;2023-09-30T01:22:29;19.30;;;7.20;;
77495;SDS011;66600;48.378;9.948;2023-09-30T01:23:00;18.25;;;7.25;;
77495;SDS011;66600;48.378;9.948;2023-09-30T01:23:32;18.38;;;7.18;;
77495;SDS011;66600;48.378;9.948;2023-09-30T01:24:03;18.25;;;7.10;;
77495;SDS011;66600;48.378;9.948;2023-09-30T01:24:38;14.15;;;6.43;;
77495;SDS011;66600;48.378;9.948;2023-09-30T01:25:10;19.17;;;7.40;;
77495;SDS011;66600;48.378;9.948;2023-09-30T01:25:41;17.23;;;6.78;;
77495;SDS011;66600;48.378;9.948;2023-09-30T01:26:14;18.83;;;6.88;;
77495;SDS011;66600;48.378;9.948;2023-09-30T01:26:44;18.17;;;7.47;;
77495;SDS011;66600;48.378;9.948;2023-09-30T01:27:14;16.58;;;7.05;;
77495;SDS011;66600;48.378;9.948;2023-09-30T01:27:48;19.55;;;7.60;;
77495;SDS011;66600;48.378;9.948;2023-09-30T01:28:20;20.52;;;8.00;;
77495;SDS011;66600;48.378;9.948;2023-09-30T01:28:50;18.42;;;7.60;;
77495;SDS011;66600;48.378;9.948;2023-09-30T01:29:21;19.92;;;7.70;;
77495;SDS011;66600;48.378;9.948;2023-09-30T01:29:52;17.27;;;7.28;;
77495;SDS011;66600;48.378;9.948;2023-09-30T01:30:22;17.38;;;7.55;;
77495;SDS011;66600;48.378;9.948;2023-09-30T01:30:53;19.90;;;8.30;;
77495;SDS011;66600;48.378;9.948;2023-09-30T01:31:23;21.08;;;8.50;;
77495;SDS011;66600;48.378;9.948;2023-09-30T01:31:54;18.67;;;7.82;;
77495;SDS011;66600;48.378;9.948;2023-09-30T01:32:24;19.25;;;8.23;;
77495;SDS011;66600;48.378;9.948;2023-09-30T01:32:55;19.23;;;8.50;;
77495;SDS011;66600;48.378;9.948;2023-09-30T01:33:25;19.92;;;7.95;;
77495;SDS011;66600;48.378;9.948;2023-09-30T01:33:55;18.95;;;7.93;;
77495;SDS011;66600;48.378;9.948;2023-09-30T01:34:26;19.55;;;8.63;;
77495;SDS011;66600;48.378;9.948;2023-09-30T01:34:56;22.13;;;8.25;;
77495;SDS011;66600;48.378;9.948;2023-09-30T01:35:26;19.10;;;7.85;;
77495;SDS011;66600;48.378;9.948;2023-09-30T01:35:57;19.77;;;8.25;;
77495;SDS011;66600;48.378;9.948;2023-09-30T01:36:29;18.40;;;8.35;;
77495;SDS011;66600;48.378;9.948;2023-09-30T01:37:00;19.83;;;8.00;;
77495;SDS011;66600;48.378;9.948;2023-09-30T01:37:30;19.33;;;8.57;;
77495;SDS011;66600;48.378;9.948;2023-09-30T01:38:01;18.92;;;7.93;;
77495;SDS011;66600;48.378;9.948;2023-09-30T01:38:31;17.80;;;7.82;;
77495;SDS011;66600;48.378;9.948;2023-09-30T01:39:01;19.88;;;8.07;;
77495;SDS011;66600;48.378;9.948;2023-09-30T01:39:32;20.80;;;8.07;;
77495;SDS011;66600;48.378;9.948;2023-09-30T01:40:04;18.25;;;7.65;;
77495;SDS011;66600;48.378;9.948;2023-09-30T01:40:38;19.65;;;8.05;;
77495;SDS011;66600;48.378;9.948;2023-09-30T01:41:08;22.00;;;8.30;;
77495;SDS011;66600;48.378;9.948;2023-09-30T01:41:39;20.00;;;7.63;;
77495;SDS011;66600;48.378;9.948;2023-09-30T01:42:10;20.50;;;8.40;;
77495;SDS011;66600;48.378;9.948;2023-09-30T01:42:40;23.10;;;8.43;;
77495;SDS011;66600;48.378;9.948;2023-09-30T01:43:11;18.27;;;7.85;;
77495;SDS011;66600;48.378;9.948;2023-09-30T01:43:43;19.60;;;8.23;;
77495;SDS011;66600;48.378;9.948;2023-09-30T01:44:13;18.15;;;8.07;;
77495;SDS011;66600;48.378;9.948;2023-09-30T01:44:44;23.05;;;8.73;;
77495;SDS011;66600;48.378;9.948;2023-09-30T01:45:14;21.23;;;8.50;;
77495;SDS011;66600;48.378;9.948;2023-09-30T01:45:44;20.95;;;8.82;;
77495;SDS011;66600;48.378;9.948;2023-09-30T01:46:15;20.70;;;8.75;;
77495;SDS011;66600;48.378;9.948;2023-09-30T01:46:46;20.90;;;8.45;;
77495;SDS011;66600;48.378;9.948;2023-09-30T01:47:16;23.80;;;9.43;;
77495;SDS011;66600;48.378;9.948;2023-09-30T01:47:46;22.75;;;8.88;;
77495;SDS011;66600;48.378;9.948;2023-09-30T01:48:17;20.15;;;8.40;;
77495;SDS011;66600;48.378;9.948;2023-09-30T01:48:47;18.08;;;7.78;;
77495;SDS011;66600;48.378;9.948;2023-09-30T01:49:18;22.75;;;8.23;;
77495;SDS011;66600;48.378;9.948;2023-09-30T01:49:48;19.52;;;8.18;;
77495;SDS011;66600;48.378;9.948;2023-09-30T01:50:19;20.55;;;8.27;;
77495;SDS011;66600;48.378;9.948;2023-09-30T01:50:50;20.05;;;8.63;;
77495;SDS011;66600;48.378;9.948;2023-09-30T01:51:20;20.77;;;8.90;;
77495;SDS011;66600;48.378;9.948;2023-09-30T01:51:51;23.23;;;8.95;;
77495;SDS011;66600;48.378;9.948;2023-09-30T01:52:23;20.33;;;8.25;;
77495;SDS011;66600;48.378;9.948;2023-09-30T01:52:53;21.60;;;8.50;;
77495;SDS011;66600;48.378;9.948;2023-09-30T01:53:23;21.33;;;9.00;;
77495;SDS011;66600;48.378;9.948;2023-09-30T01:53:54;20.15;;;8.43;;
77495;SDS011;66600;48.378;9.948;2023-09-30T01:54:24;19.20;;;8.13;;
77495;SDS011;66600;48.378;9.948;2023-09-30T01:54:55;19.02;;;8.48;;
77495;SDS011;66600;48.378;9.948;2023-09-30T01:55:25;23.95;;;9.13;;
77495;SDS011;66600;48.378;9.948;2023-09-30T01:55:56;21.38;;;9.07;;
77495;SDS011;66600;48.378;9.948;2023-09-30T01:56:26;21.27;;;9.23;;
77495;SDS011;66600;48.378;9.948;2023-09-30T01:56:57;20.27;;;8.57;;
77495;SDS011;66600;48.378;9.948;2023-09-30T01:57:28;21.08;;;8.05;;
77495;SDS011;66600;48.378;9.948;2023-09-30T01:57:59;19.20;;;8.05;;
77495;SDS011;66600;48.378;9.948;2023-09-30T01:58:29;18.48;;;8.23;;
77495;SDS011;66600;48.378;9.948;2023-09-30T01:59:00;20.50;;;8.25;;
77495;SDS011;66600;48.378;9.948;2023-09-30T01:59:30;20.70;;;7.93;;
77495;SDS011;66600;48.378;9.948;2023-09-30T02:00:01;21.77;;;8.77;;
77495;SDS011;66600;48.378;9.948;2023-09-30T02:00:31;20.55;;;8.50;;
77495;SDS011;66600;48.378;9.948;2023-09-30T02:01:02;21.83;;;8.23;;
77495;SDS011;66600;48.378;9.948;2023-09-30T02:01:33;22.83;;;8.27;;
77495;SDS011;66600;48.378;9.948;2023-09-30T02:02:03;17.83;;;7.40;;
77495;SDS011;66600;48.378;9.948;2023-09-30T02:02:34;18.83;;;8.35;;
77495;SDS011;66600;48.378;9.948;2023-09-30T02:03:05;19.38;;;8.27;;
77495;SDS011;66600;48.378;9.948;2023-09-30T02:03:35;20.45;;;8.02;;
77495;SDS011;66600;48.378;9.948;2023-09-30T02:04:06;19.75;;;8.18;;
77495;SDS011;66600;48.378;9.948;2023-09-30T02:04:36;17.48;;;7.70;;
77495;SDS011;66600;48.378;9.948;2023-09-30T02:05:07;17.70;;;7.53;;
77495;SDS011;66600;48.378;9.948;2023-09-30T02:05:41;21.33;;;8.40;;
77495;SDS011;66600;48.378;9.948;2023-09-30T02:06:11;21.10;;;8.77;;
77495;SDS011;66600;48.378;9.948;2023-09-30T02:06:41;21.60;;;8.18;;
77495;SDS011;66600;48.378;9.948;2023-09-30T02:07:12;17.80;;;7.80;;
77495;SDS011;66600;48.378;9.948;2023-09-30T02:07:42;18.52;;;7.20;;
77495;SDS011;66600;48.378;9.948;2023-09-30T02:08:13;19.52;;;8.32;;
77495;SDS011;66600;48.378;9.948;2023-09-30T02:08:43;21.48;;;8.48;;
77495;SDS011;66600;48.378;9.948;2023-09-30T02:09:14;21.50;;;8.48;;
77495;SDS011;66600;48.378;9.948;2023-09-30T02:09:45;20.02;;;8.15;;
77495;SDS011;66600;48.378;9.948;2023-09-30T02:10:15;18.98;;;7.82;;
77495;SDS011;66600;48.378;9.948;2023-09-30T02:10:47;20.15;;;8.25;;
77495;SDS011;66600;48.378;9.948;2023-09-30T02:11:17;20.67;;;7.93;;
77495;SDS011;66600;48.378;9.948;2023-09-30T02:11:47;21.80;;;8.13;;
77495;SDS011;66600;48.378;9.948;2023-09-30T02:12:18;17.42;;;7.78;;
77495;SDS011;66600;48.378;9.948;2023-09-30T02:12:48;18.27;;;7.70;;
77495;SDS011;66600;48.378;9.948;2023-09-30T02:13:19;19.08;;;7.53;;
77495;SDS011;66600;48.378;9.948;2023-09-30T02:13:50;20.58;;;8.05;;
77495;SDS011;66600;48.378;9.948;2023-09-30T02:14:20;18.10;;;7.57;;
77495;SDS011;66600;48.378;9.948;2023-09-30T02:14:50;21.35;;;8.70;;
77495;SDS011;66600;48.378;9.948;2023-09-30T02:15:21;20.48;;;8.23;;
77495;SDS011;66600;48.378;9.948;2023-09-30T02:15:51;20.02;;;8.15;;
77495;SDS011;66600;48.378;9.948;2023-09-30T02:16:22;19.48;;;7.85;;
77495;SDS011;66600;48.378;9.948;2023-09-30T02:16:53;18.85;;;8.18;;
77495;SDS011;66600;48.378;9.948;2023-09-30T02:17:23;19.70;;;8.15;;
77495;SDS011;66600;48.378;9.948;2023-09-30T02:17:53;18.48;;;8.35;;
77495;SDS011;66600;48.378;9.948;2023-09-30T02:18:24;18.27;;;7.90;;
77495;SDS011;66600;48.378;9.948;2023-09-30T02:18:54;18.15;;;7.88;;
77495;SDS011;66600;48.378;9.948;2023-09-30T02:19:25;19.38;;;8.02;;
77495;SDS011;66600;48.378;9.948;2023-09-30T02:19:57;20.58;;;8.55;;
77495;SDS011;66600;48.378;9.948;2023-09-30T02:20:27;19.75;;;8.25;;
77495;SDS011;66600;48.378;9.948;2023-09-30T02:21:00;19.42;;;7.78;;
77495;SDS011;66600;48.378;9.948;2023-09-30T02:21:30;18.05;;;8.13;;
77495;SDS011;66600;48.378;9.948;2023-09-30T02:22:06;20.30;;;8.13;;
77495;SDS011;66600;48.378;9.948;2023-09-30T02:22:36;20.15;;;8.27;;
77495;SDS011;66600;48.378;9.948;2023-09-30T02:23:10;20.13;;;8.05;;
77495;SDS011;66600;48.378;9.948;2023-09-30T02:23:46;17.85;;;7.80;;
77495;SDS011;66600;48.378;9.948;2023-09-30T02:24:18;21.83;;;8.38;;
77495;SDS011;66600;48.378;9.948;2023-09-30T02:24:48;20.58;;;8.40;;
77495;SDS011;66600;48.378;9.948;2023-09-30T02:25:19;18.83;;;8.60;;
77495;SDS011;66600;48.378;9.948;2023-09-30T02:25:49;18.92;;;7.82;;
77495;SDS011;66600;48.378;9.948;2023-09-30T02:26:19;20.77;;;8.23;;
77495;SDS011;66600;48.378;9.948;2023-09-30T02:26:50;21.70;;;8.25;;
77495;SDS011;66600;48.378;9.948;2023-09-30T02:27:20;20.15;;;8.38;;
77495;SDS011;66600;48.378;9.948;2023-09-30T02:27:51;18.70;;;8.13;;
77495;SDS011;66600;48.378;9.948;2023-09-30T02:28:21;19.95;;;8.05;;
77495;SDS011;66600;48.378;9.948;2023-09-30T02:28:51;21.55;;;8.25;;
77495;SDS011;66600;48.378;9.948;2023-09-30T02:29:25;21.73;;;8.50;;
77495;SDS011;66600;48.378;9.948;2023-09-30T02:29:55;18.73;;;7.60;;
77495;SDS011;66600;48.378;9.948;2023-09-30T02:30:26;19.27;;;7.97;;
77495;SDS011;66600;48.378;9.948;2023-09-30T02:30:58;18.08;;;7.45;;
77495;SDS011;66600;48.378;9.948;2023-09-30T02:31:29;22.45;;;8.45;;
77495;SDS011;66600;48.378;9.948;2023-09-30T02:32:00;18.85;;;8.23;;
77495;SDS011;66600;48.378;9.948;2023-09-30T02:32:30;19.88;;;8.35;;
77495;SDS011;66600;48.378;9.948;2023-09-30T02:33:03;20.42;;;7.82;;
77495;SDS011;66600;48.378;9.948;2023-09-30T02:33:34;19.85;;;8.18;;
77495;SDS011;66600;48.378;9.948;2023-09-30T02:34:09;20.85;;;9.13;;
77495;SDS011;66600;48.378;9.948;2023-09-30T02:34:39;18.52;;;8.23;;
77495;SDS011;66600;48.378;9.948;2023-09-30T02:35:09;20.98;;;8.52;;
77495;SDS011;66600;48.378;9.948;2023-09-30T02:35:45;20.17;;;8.20;;
77495;SDS011;66600;48.378;9.948;2023-09-30T02:36:15;19.08;;;8.10;;
77495;SDS011;66600;48.378;9.948;2023-09-30T02:36:46;20.50;;;8.05;;
77495;SDS011;66600;48.378;9.948;2023-09-30T02:37:16;20.42;;;8.15;;
77495;SDS011;66600;48.378;9.948;2023-09-30T02:37:48;20.13;;;8.30;;
77495;SDS011;66600;48.378;9.948;2023-09-30T02:38:21;19.77;;;8.27;;
77495;SDS011;66600;48.378;9.948;2023-09-30T02:38:52;20.65;;;8.50;;
77495;SDS011;66600;48.378;9.948;2023-09-30T02:39:23;19.58;;;8.60;;
77495;SDS011;66600;48.378;9.948;2023-09-30T02:39:53;19.45;;;8.18;;
77495;SDS011;66600;48.378;9.948;2023-09-30T02:40:24;21.35;;;8.32;;
77495;SDS011;66600;48.378;9.948;2023-09-30T02:40:55;19.40;;;8.80;;
77495;SDS011;66600;48.378;9.948;2023-09-30T02:41:26;19.58;;;7.43;;
77495;SDS011;66600;48.378;9.948;2023-09-30T02:41:56;21.20;;;8.00;;
77495;SDS011;66600;48.378;9.948;2023-09-30T02:42:26;21.05;;;8.52;;
77495;SDS011;66600;48.378;9.948;2023-09-30T02:42:57;17.60;;;7.63;;
77495;SDS011;66600;48.378;9.948;2023-09-30T02:43:27;18.83;;;8.15;;
77495;SDS011;66600;48.378;9.948;2023-09-30T02:43:58;19.10;;;7.47;;
77495;SDS011;66600;48.378;9.948;2023-09-30T02:44:28;20.88;;;8.30;;
77495;SDS011;66600;48.378;9.948;2023-09-30T02:45:02;20.00;;;7.60;;
77495;SDS011;66600;48.378;9.948;2023-09-30T02:45:33;19.70;;;8.10;;
77495;SDS011;66600;48.378;9.948;2023-09-30T02:46:03;19.60;;;7.38;;
77495;SDS011;66600;48.378;9.948;2023-09-30T02:46:34;14.98;;;7.20;;
77495;SDS011;66600;48.378;9.948;2023-09-30T02:47:04;16.08;;;6.97;;
77495;SDS011;66600;48.378;9.948;2023-09-30T02:47:35;19.38;;;7.47;;
77495;SDS011;66600;48.378;9.948;2023-09-30T02:48:05;17.20;;;7.40;;
77495;SDS011;66600;48.378;9.948;2023-09-30T02:48:36;15.57;;;7.00;;
77495;SDS011;66600;48.378;9.948;2023-09-30T02:49:07;19.38;;;7.68;;
77495;SDS011;66600;48.378;9.948;2023-09-30T02:49:38;18.33;;;7.00;;
77495;SDS011;66600;48.378;9.948;2023-09-30T02:50:09;16.88;;;7.43;;
77495;SDS011;66600;48.378;9.948;2023-09-30T02:50:43;16.52;;;7.30;;
77495;SDS011;66600;48.378;9.948;2023-09-30T02:51:16;19.55;;;7.57;;
77495;SDS011;66600;48.378;9.948;2023-09-30T02:51:47;19.50;;;7.22;;
77495;SDS011;66600;48.378;9.948;2023-09-30T02:52:17;15.55;;;6.80;;
77495;SDS011;66600;48.378;9.948;2023-09-30T02:52:47;16.45;;;6.90;;
77495;SDS011;66600;48.378;9.948;2023-09-30T02:53:19;14.15;;;6.32;;
77495;SDS011;66600;48.378;9.948;2023-09-30T02:53:50;16.02;;;6.53;;
77495;SDS011;66600;48.378;9.948;2023-09-30T02:54:20;16.42;;;6.43;;
77495;SDS011;66600;48.378;9.948;2023-09-30T02:54:50;16.90;;;6.72;;
77495;SDS011;66600;48.378;9.948;2023-09-30T02:55:21;13.07;;;5.90;;
77495;SDS011;66600;48.378;9.948;2023-09-30T02:55:52;16.17;;;7.13;;
77495;SDS011;66600;48.378;9.948;2023-09-30T02:56:26;16.40;;;6.57;;
77495;SDS011;66600;48.378;9.948;2023-09-30T02:56:58;14.05;;;6.25;;
77495;SDS011;66600;48.378;9.948;2023-09-30T02:57:28;17.10;;;6.63;;
77495;SDS011;66600;48.378;9.948;2023-09-30T02:57:59;15.52;;;6.38;;
77495;SDS011;66600;48.378;9.948;2023-09-30T02:58:30;15.45;;;6.72;;
77495;SDS011;66600;48.378;9.948;2023-09-30T02:59:01;15.65;;;7.20;;
77495;SDS011;66600;48.378;9.948;2023-09-30T02:59:31;19.08;;;6.88;;
77495;SDS011;66600;48.378;9.948;2023-09-30T03:00:03;13.65;;;5.90;;
77495;SDS011;66600;48.378;9.948;2023-09-30T03:01:03;16.20;;;6.38;;
77495;SDS011;66600;48.378;9.948;2023-09-30T03:01:33;14.65;;;6.45;;
77495;SDS011;66600;48.378;9.948;2023-09-30T03:02:04;15.55;;;6.30;;
77495;SDS011;66600;48.378;9.948;2023-09-30T03:02:34;14.88;;;6.25;;
77495;SDS011;66600;48.378;9.948;2023-09-30T03:03:05;15.20;;;6.35;;
77495;SDS011;66600;48.378;9.948;2023-09-30T03:03:35;16.95;;;6.63;;
77495;SDS011;66600;48.378;9.948;2023-09-30T03:04:06;14.32;;;6.03;;
77495;SDS011;66600;48.378;9.948;2023-09-30T03:04:37;16.23;;;5.80;;